createdAt,value
2018-03-26T00:02:03.984Z,35.37
2018-03-26T00:04:31.156Z,43.63
2018-03-26T00:06:57.507Z,41.23
2018-03-26T00:09:23.826Z,40.87
2018-03-26T00:11:50.181Z,42.80
2018-03-26T00:14:16.558Z,43.47
2018-03-26T00:16:43.663Z,37.60
2018-03-26T00:19:10.715Z,42.67
2018-03-26T00:21:37.084Z,41.43
2018-03-26T00:24:04.244Z,41.20
2018-03-26T00:26:30.579Z,39.50
2018-03-26T00:28:56.930Z,40.20
2018-03-26T00:31:23.255Z,41.43
2018-03-26T00:33:49.672Z,40.40
2018-03-26T00:36:16.764Z,40.07
2018-03-26T00:38:43.123Z,39.90
2018-03-26T00:41:09.456Z,44.80
2018-03-26T00:43:36.641Z,37.20
2018-03-26T00:46:03.480Z,44.10
2018-03-26T00:48:29.938Z,43.07
2018-03-26T00:50:56.305Z,43.40
2018-03-26T00:53:35.206Z,41.17
2018-03-26T00:56:01.675Z,40.83
2018-03-26T00:58:28.106Z,39.03
2018-03-26T01:00:54.445Z,39.67
2018-03-26T01:03:20.837Z,38.27
2018-03-26T01:05:47.233Z,37.60
2018-03-26T01:08:13.600Z,39.43
2018-03-26T01:10:39.953Z,39.37
2018-03-26T01:13:06.329Z,39.17
2018-03-26T01:15:32.667Z,37.27
2018-03-26T01:17:59.060Z,33.30
2018-03-26T01:20:26.212Z,34.80
2018-03-26T01:22:52.588Z,32.27
2018-03-26T01:25:18.968Z,31.93
2018-03-26T01:27:45.464Z,32.57
2018-03-26T01:30:11.793Z,32.90
2018-03-26T01:32:38.112Z,31.83
2018-03-26T01:35:04.479Z,30.83
2018-03-26T01:37:31.612Z,28.93
2018-03-26T01:39:58.004Z,29.93
2018-03-26T01:42:25.131Z,26.37
2018-03-26T01:44:51.523Z,28.33
2018-03-26T01:47:18.589Z,29.80
2018-03-26T01:49:45.710Z,25.90
2018-03-26T01:52:12.807Z,26.97
2018-03-26T01:54:39.912Z,30.17
2018-03-26T01:57:06.248Z,31.30
2018-03-26T01:59:32.613Z,27.17
2018-03-26T02:01:58.975Z,25.40
2018-03-26T02:04:25.389Z,28.23
2018-03-26T02:06:51.743Z,26.33
2018-03-26T02:09:18.098Z,25.83
2018-03-26T02:11:45.204Z,24.47
2018-03-26T02:14:11.596Z,26.33
2018-03-26T02:16:37.953Z,27.97
2018-03-26T02:19:04.320Z,24.37
2018-03-26T02:21:30.692Z,24.47
2018-03-26T02:23:57.068Z,24.90
2018-03-26T02:26:23.488Z,26.33
2018-03-26T02:28:49.851Z,27.43
2018-03-26T02:31:16.201Z,26.20
2018-03-26T02:33:42.596Z,29.17
2018-03-26T02:36:08.975Z,28.07
2018-03-26T02:38:35.343Z,28.87
2018-03-26T02:41:01.724Z,28.80
2018-03-26T02:43:28.086Z,31.07
2018-03-26T02:45:54.446Z,29.20
2018-03-26T02:48:20.776Z,29.33
2018-03-26T02:50:47.220Z,32.80
2018-03-26T02:53:13.508Z,29.70
2018-03-26T02:55:39.866Z,28.77
2018-03-26T02:58:06.199Z,29.03
2018-03-26T03:00:32.542Z,30.93
2018-03-26T03:02:59.675Z,32.27
2018-03-26T03:05:26.089Z,32.90
2018-03-26T03:07:52.431Z,29.33
2018-03-26T03:10:18.799Z,36.27
2018-03-26T03:12:45.188Z,36.97
2018-03-26T03:15:12.273Z,36.77
2018-03-26T03:17:38.607Z,35.37
2018-03-26T03:20:05.765Z,41.03
2018-03-26T03:22:32.870Z,39.67
2018-03-26T03:25:00.012Z,37.10
2018-03-26T03:27:26.512Z,35.23
2018-03-26T03:29:53.596Z,38.20
2018-03-26T03:32:19.951Z,36.93
2018-03-26T03:34:46.291Z,36.67
2018-03-26T03:37:12.705Z,34.90
2018-03-26T03:39:39.812Z,37.13
2018-03-26T03:42:06.248Z,38.13
2018-03-26T03:44:32.579Z,38.20
2018-03-26T03:46:58.967Z,36.13
2018-03-26T03:49:26.095Z,35.00
2018-03-26T03:51:52.419Z,35.73
2018-03-26T03:54:19.540Z,34.30
2018-03-26T03:56:45.905Z,36.93
2018-03-26T03:59:13.051Z,34.90
2018-03-26T04:01:40.891Z,38.37
2018-03-26T04:04:07.252Z,37.90
2018-03-26T04:06:33.567Z,37.80
2018-03-26T04:08:59.914Z,37.57
2018-03-26T04:11:26.245Z,36.80
2018-03-26T04:13:52.616Z,33.70
2018-03-26T04:16:20.492Z,37.73
2018-03-26T04:18:46.860Z,34.80
2018-03-26T04:21:13.210Z,35.10
2018-03-26T04:23:39.568Z,36.43
2018-03-26T04:26:06.639Z,38.57
2018-03-26T04:28:33.097Z,43.57
2018-03-26T04:30:59.436Z,38.07
2018-03-26T04:33:25.800Z,38.87
2018-03-26T04:35:52.194Z,57.63
2018-03-26T04:38:19.312Z,44.20
2018-03-26T04:40:45.635Z,39.53
2018-03-26T04:43:12.038Z,38.07
2018-03-26T04:45:38.401Z,41.00
2018-03-26T04:48:05.532Z,40.37
2018-03-26T04:50:31.975Z,43.80
2018-03-26T04:52:58.403Z,38.30
2018-03-26T04:55:25.692Z,38.27
2018-03-26T04:57:52.080Z,55.47
2018-03-26T05:00:18.501Z,56.33
2018-03-26T05:02:44.888Z,55.00
2018-03-26T05:05:11.305Z,50.73
2018-03-26T05:07:37.722Z,43.40
2018-03-26T05:10:05.516Z,47.97
2018-03-26T05:12:31.907Z,49.93
2018-03-26T05:14:58.385Z,48.87
2018-03-26T05:17:24.814Z,50.50
2018-03-26T05:19:52.013Z,51.07
2018-03-26T05:22:18.406Z,58.10
2018-03-26T05:24:44.831Z,52.80
2018-03-26T05:27:11.961Z,56.43
2018-03-26T05:29:38.425Z,55.73
2018-03-26T05:32:05.068Z,48.67
2018-03-26T05:34:31.536Z,61.90
2018-03-26T05:36:58.684Z,62.47
2018-03-26T05:39:25.067Z,66.53
2018-03-26T05:41:51.532Z,62.50
2018-03-26T05:44:17.888Z,62.70
2018-03-26T05:46:44.285Z,66.07
2018-03-26T05:49:11.355Z,63.23
2018-03-26T05:51:38.487Z,69.70
2018-03-26T05:54:05.620Z,60.03
2018-03-26T05:56:32.019Z,61.30
2018-03-26T05:58:58.355Z,59.67
2018-03-26T06:01:24.711Z,56.23
2018-03-26T06:03:51.110Z,53.87
2018-03-26T06:06:17.468Z,46.40
2018-03-26T06:08:43.839Z,49.13
2018-03-26T06:11:10.220Z,44.87
2018-03-26T06:13:36.591Z,46.97
2018-03-26T06:16:03.031Z,50.97
2018-03-26T06:18:29.407Z,47.43
2018-03-26T06:20:55.848Z,45.97
2018-03-26T06:23:22.977Z,54.20
2018-03-26T06:25:49.428Z,46.07
2018-03-26T06:28:15.892Z,45.30
2018-03-26T06:30:42.351Z,45.63
2018-03-26T06:33:08.828Z,46.10
2018-03-26T06:35:35.287Z,43.50
2018-03-26T06:41:03.487Z,41.40
2018-03-26T06:43:30.964Z,42.43
2018-03-26T06:45:57.538Z,37.90
2018-03-26T06:48:24.101Z,46.10
2018-03-26T06:50:50.579Z,38.67
2018-03-26T06:53:17.831Z,42.53
2018-03-26T06:55:47.671Z,40.30
2018-03-26T06:58:14.982Z,35.93
2018-03-26T07:00:42.141Z,32.33
2018-03-26T07:03:08.754Z,30.27
2018-03-26T07:05:35.974Z,37.10
2018-03-26T07:08:02.490Z,32.03
2018-03-26T07:10:29.030Z,33.00
2018-03-26T07:12:55.629Z,32.90
2018-03-26T07:15:22.130Z,29.77
2018-03-26T07:17:48.851Z,29.37
2018-03-26T07:20:15.540Z,29.23
2018-03-26T07:22:42.035Z,26.30
2018-03-26T07:25:08.539Z,26.27
2018-03-26T07:27:35.153Z,25.97
2018-03-26T07:30:01.729Z,25.20
2018-03-26T07:32:28.319Z,25.97
2018-03-26T07:34:55.666Z,31.47
2018-03-26T07:37:22.257Z,26.57
2018-03-26T07:39:48.751Z,25.63
2018-03-26T07:42:16.219Z,24.77
2018-03-26T07:44:42.759Z,25.30
2018-03-26T07:47:09.326Z,26.30
2018-03-26T07:49:37.599Z,25.50
2018-03-26T07:52:04.948Z,25.27
2018-03-26T07:54:32.079Z,22.50
2018-03-26T07:56:59.748Z,21.80
2018-03-26T07:59:27.021Z,25.63
2018-03-26T08:01:53.628Z,23.23
2018-03-26T08:04:20.859Z,24.00
2018-03-26T08:06:48.824Z,22.23
2018-03-26T08:09:16.216Z,22.03
2018-03-26T08:11:43.568Z,20.63
2018-03-26T08:14:12.003Z,22.47
2018-03-26T08:16:38.626Z,19.83
2018-03-26T08:19:08.307Z,20.00
2018-03-26T08:21:34.907Z,20.63
2018-03-26T08:24:03.171Z,19.93
2018-03-26T08:26:29.747Z,17.53
2018-03-26T08:28:57.791Z,17.83
2018-03-26T08:31:30.129Z,16.97
2018-03-26T08:33:57.635Z,16.67
2018-03-26T08:36:24.511Z,16.00
2018-03-26T08:38:52.906Z,17.80
2018-03-26T08:41:21.850Z,16.03
2018-03-26T08:43:49.151Z,13.27
2018-03-26T08:46:17.458Z,14.60
2018-03-26T08:48:45.428Z,13.67
2018-03-26T08:51:12.043Z,16.13
2018-03-26T08:53:38.902Z,14.83
2018-03-26T08:56:06.332Z,15.20
2018-03-26T08:58:36.073Z,15.23
2018-03-26T09:01:05.629Z,14.43
2018-03-26T09:03:32.637Z,13.73
2018-03-26T09:05:59.792Z,14.20
2018-03-26T09:08:27.352Z,13.53
2018-03-26T09:10:54.996Z,14.00
2018-03-26T09:13:22.510Z,14.47
2018-03-26T09:15:51.917Z,13.27
2018-03-26T09:18:20.330Z,12.70
2018-03-26T09:20:48.850Z,12.73
2018-03-26T09:23:15.357Z,12.40
2018-03-26T09:25:45.551Z,13.13
2018-03-26T09:28:12.193Z,13.30
2018-03-26T09:30:40.481Z,10.83
2018-03-26T09:33:07.060Z,11.03
2018-03-26T09:35:33.595Z,13.43
2018-03-26T09:38:01.024Z,13.03
2018-03-26T09:40:31.379Z,10.50
2018-03-26T09:42:58.936Z,11.67
2018-03-26T09:45:28.085Z,10.37
2018-03-26T09:47:54.730Z,10.60
2018-03-26T09:50:22.129Z,12.73
2018-03-26T09:52:49.001Z,9.93
2018-03-26T09:55:16.363Z,9.77
2018-03-26T09:57:44.504Z,9.00
2018-03-26T10:00:12.163Z,8.37
2018-03-26T10:02:38.828Z,8.93
2018-03-26T10:05:05.960Z,10.07
2018-03-26T10:07:34.203Z,8.47
2018-03-26T10:10:00.842Z,7.00
2018-03-26T10:12:29.256Z,10.07
2018-03-26T10:14:56.514Z,9.40
2018-03-26T10:17:23.264Z,7.90
2018-03-26T10:19:49.698Z,5.83
2018-03-26T10:22:16.171Z,6.70
2018-03-26T10:24:43.532Z,6.07
2018-03-26T10:27:10.099Z,4.57
2018-03-26T10:29:37.275Z,6.00
2018-03-26T10:32:05.101Z,3.97
2018-03-26T10:34:33.309Z,4.20
2018-03-26T10:37:00.753Z,5.00
2018-03-26T10:39:27.255Z,5.03
2018-03-26T10:41:56.211Z,5.87
2018-03-26T10:44:23.648Z,6.60
2018-03-26T10:46:51.219Z,5.97
2018-03-26T10:49:17.750Z,4.13
2018-03-26T10:51:46.038Z,4.90
2018-03-26T10:54:13.337Z,4.40
2018-03-26T10:56:41.224Z,4.90
2018-03-26T10:59:07.724Z,5.37
2018-03-26T11:01:34.303Z,6.23
2018-03-26T11:04:02.417Z,4.70
2018-03-26T11:06:29.035Z,4.77
2018-03-26T11:08:55.653Z,5.40
2018-03-26T11:11:22.161Z,6.20
2018-03-26T11:13:48.771Z,5.27
2018-03-26T11:16:16.092Z,4.37
2018-03-26T11:18:42.682Z,5.60
2018-03-26T11:21:09.796Z,5.73
2018-03-26T11:23:36.397Z,4.00
2018-03-26T11:26:03.351Z,5.40
2018-03-26T11:28:30.112Z,4.93
2018-03-26T11:30:56.698Z,3.80
2018-03-26T11:33:23.846Z,4.37
2018-03-26T11:35:50.565Z,3.63
2018-03-26T11:38:18.538Z,4.57
2018-03-26T11:40:45.793Z,3.43
2018-03-26T11:43:14.080Z,3.10
2018-03-26T11:45:40.993Z,4.17
2018-03-26T11:48:07.561Z,4.20
2018-03-26T11:50:34.664Z,4.10
2018-03-26T11:53:03.399Z,5.60
2018-03-26T11:55:29.947Z,4.33
2018-03-26T11:57:56.556Z,4.37
2018-03-26T12:00:23.429Z,2.63
2018-03-26T12:02:51.133Z,3.00
2018-03-26T12:05:17.744Z,3.53
2018-03-26T12:07:44.681Z,3.20
2018-03-26T12:10:12.122Z,4.40
2018-03-26T12:12:39.605Z,3.10
2018-03-26T12:15:08.427Z,3.20
2018-03-26T12:17:35.734Z,3.17
2018-03-26T12:20:14.651Z,3.20
2018-03-26T12:22:41.285Z,3.00
2018-03-26T12:25:14.595Z,3.20
2018-03-26T12:27:53.612Z,2.70
2018-03-26T12:30:22.096Z,3.23
2018-03-26T12:32:49.307Z,2.47
2018-03-26T12:35:28.159Z,3.00
2018-03-26T12:37:55.434Z,2.80
2018-03-26T12:40:34.324Z,2.50
2018-03-26T12:43:00.879Z,2.70
2018-03-26T12:45:39.790Z,3.80
2018-03-26T12:48:06.404Z,2.67
2018-03-26T12:50:45.192Z,3.40
2018-03-26T12:53:13.368Z,3.60
2018-03-26T12:55:40.287Z,3.47
2018-03-26T12:58:19.099Z,2.80
2018-03-26T13:00:58.059Z,3.30
2018-03-26T13:03:24.681Z,2.57
2018-03-26T13:05:51.571Z,3.07
2018-03-26T13:08:18.126Z,3.97
2018-03-26T13:10:44.692Z,3.23
2018-03-26T13:13:12.219Z,4.23
2018-03-26T13:15:39.172Z,3.60
2018-03-26T13:18:08.534Z,2.43
2018-03-26T13:20:36.016Z,3.50
2018-03-26T13:23:02.621Z,4.20
2018-03-26T13:25:29.246Z,3.27
2018-03-26T13:27:56.566Z,4.53
2018-03-26T13:30:23.134Z,4.37
2018-03-26T13:32:50.483Z,4.87
2018-03-26T13:35:17.076Z,4.97
2018-03-26T13:37:43.723Z,4.77
2018-03-26T13:40:10.260Z,4.10
2018-03-26T13:42:36.772Z,4.00
2018-03-26T13:45:04.073Z,4.20
2018-03-26T13:47:30.762Z,3.80
2018-03-26T13:49:58.309Z,3.20
2018-03-26T13:52:24.911Z,3.90
2018-03-26T13:54:51.423Z,4.27
2018-03-26T13:57:17.946Z,4.23
2018-03-26T13:59:45.416Z,4.70
2018-03-26T14:02:12.637Z,3.87
2018-03-26T14:04:39.217Z,4.03
2018-03-26T14:07:05.800Z,4.50
2018-03-26T14:09:44.744Z,5.40
2018-03-26T14:12:23.591Z,4.90
2018-03-26T14:15:04.707Z,4.40
2018-03-26T14:17:46.754Z,3.60
2018-03-26T14:20:14.003Z,4.13
2018-03-26T14:22:41.392Z,4.17
2018-03-26T14:25:07.965Z,4.63
2018-03-26T14:27:34.603Z,5.40
2018-03-26T14:30:01.233Z,3.87
2018-03-26T14:32:30.444Z,4.77
2018-03-26T14:35:09.429Z,4.40
2018-03-26T14:37:36.431Z,4.47
2018-03-26T14:40:04.983Z,3.73
2018-03-26T14:42:31.552Z,4.83
2018-03-26T14:44:58.137Z,4.83
2018-03-26T14:47:24.716Z,4.70
2018-03-26T14:49:52.594Z,4.40
2018-03-26T14:52:20.240Z,3.80
2018-03-26T14:54:47.111Z,3.20
2018-03-26T14:57:13.754Z,4.40
2018-03-26T14:59:40.285Z,3.37
2018-03-26T15:02:06.780Z,3.93
2018-03-26T15:04:34.113Z,4.33
2018-03-26T15:07:01.028Z,2.90
2018-03-26T15:09:27.719Z,3.80
2018-03-26T15:11:55.308Z,3.57
2018-03-26T15:14:21.926Z,4.83
2018-03-26T15:16:48.596Z,5.73
2018-03-26T15:19:15.236Z,4.20
2018-03-26T15:21:41.744Z,4.33
2018-03-26T15:24:08.748Z,4.90
2018-03-26T15:26:36.023Z,5.40
2018-03-26T15:29:03.486Z,5.07
2018-03-26T15:31:30.042Z,5.27
2018-03-26T15:33:57.410Z,4.43
2018-03-26T15:36:24.783Z,4.57
2018-03-26T15:38:51.361Z,4.90
2018-03-26T15:41:17.953Z,5.37
2018-03-26T15:43:44.559Z,3.60
2018-03-26T15:46:11.413Z,4.37
2018-03-26T15:48:38.201Z,4.60
2018-03-26T15:51:05.532Z,4.90
2018-03-26T15:53:33.703Z,4.23
2018-03-26T15:56:00.285Z,4.30
2018-03-26T15:58:27.108Z,3.27
2018-03-26T16:00:53.760Z,3.50
2018-03-26T16:03:25.343Z,3.73
2018-03-26T16:05:52.045Z,4.23
2018-03-26T16:08:18.779Z,3.97
2018-03-26T16:10:45.317Z,5.40
2018-03-26T16:13:11.808Z,5.20
2018-03-26T16:15:38.296Z,3.90
2018-03-26T16:18:04.926Z,4.77
2018-03-26T16:20:32.979Z,3.70
2018-03-26T16:23:00.309Z,5.13
2018-03-26T16:25:27.598Z,6.63
2018-03-26T16:27:54.332Z,5.00
2018-03-26T16:30:21.584Z,5.10
2018-03-26T16:32:48.919Z,16.60
2018-03-26T16:35:15.382Z,11.27
2018-03-26T16:37:41.858Z,4.33
2018-03-26T16:40:08.445Z,8.93
2018-03-26T16:42:41.900Z,6.53
2018-03-26T16:45:08.434Z,11.00
2018-03-26T16:47:35.070Z,5.70
2018-03-26T16:50:01.651Z,9.87
2018-03-26T16:52:28.207Z,4.10
2018-03-26T16:54:54.740Z,3.90
2018-03-26T16:57:21.318Z,3.23
2018-03-26T16:59:47.867Z,4.10
2018-03-26T17:02:14.351Z,3.50
2018-03-26T17:04:40.988Z,3.97
2018-03-26T17:07:08.988Z,3.63
2018-03-26T17:09:35.427Z,3.60
2018-03-26T17:12:02.731Z,3.40
2018-03-26T17:14:29.248Z,3.83
2018-03-26T17:16:55.762Z,3.60
2018-03-26T17:19:23.110Z,3.00
2018-03-26T17:21:49.645Z,3.80
2018-03-26T17:24:16.157Z,3.43
2018-03-26T17:26:43.486Z,4.23
2018-03-26T17:29:10.922Z,4.30
2018-03-26T17:31:39.232Z,4.47
2018-03-26T17:34:05.863Z,3.80
2018-03-26T17:36:32.593Z,4.50
2018-03-26T17:38:59.152Z,4.27
2018-03-26T17:41:25.676Z,4.93
2018-03-26T17:43:52.266Z,4.13
2018-03-26T17:46:18.994Z,3.90
2018-03-26T17:48:46.170Z,4.20
2018-03-26T17:51:13.535Z,4.43
2018-03-26T17:53:40.166Z,4.50
2018-03-26T17:56:07.598Z,3.80
2018-03-26T17:58:34.918Z,6.47
2018-03-26T18:01:02.753Z,9.17
2018-03-26T18:03:29.340Z,6.40
2018-03-26T18:05:57.396Z,7.90
2018-03-26T18:08:23.938Z,6.60
2018-03-26T18:10:50.523Z,6.40
2018-03-26T18:13:17.899Z,5.03
2018-03-26T18:15:45.250Z,5.13
2018-03-26T18:18:13.932Z,5.50
2018-03-26T18:20:40.520Z,7.23
2018-03-26T18:23:08.115Z,7.17
2018-03-26T18:25:35.409Z,7.30
2018-03-26T18:28:01.918Z,7.53
2018-03-26T18:30:28.449Z,9.53
2018-03-26T18:32:55.784Z,8.23
2018-03-26T18:35:22.253Z,6.50
2018-03-26T18:37:49.543Z,8.73
2018-03-26T18:40:16.057Z,6.83
2018-03-26T18:42:42.631Z,6.97
2018-03-26T18:45:09.906Z,6.30
2018-03-26T18:47:36.422Z,7.00
2018-03-26T18:50:03.555Z,10.30
2018-03-26T18:52:30.161Z,8.87
2018-03-26T18:54:56.844Z,7.83
2018-03-26T18:57:23.533Z,7.80
2018-03-26T18:59:50.073Z,7.80
2018-03-26T19:02:16.607Z,8.30
2018-03-26T19:04:43.264Z,8.67
2018-03-26T19:07:09.824Z,8.80
2018-03-26T19:09:36.340Z,10.07
2018-03-26T19:12:03.076Z,9.33
2018-03-26T19:14:29.599Z,9.83
2018-03-26T19:16:56.093Z,10.50
2018-03-26T19:19:24.155Z,8.90
2018-03-26T19:21:50.653Z,9.90
2018-03-26T19:24:17.184Z,8.27
2018-03-26T19:26:43.700Z,10.57
2018-03-26T19:29:10.190Z,9.40
2018-03-26T19:31:36.684Z,9.13
2018-03-26T19:34:05.087Z,10.13
2018-03-26T19:36:31.560Z,8.30
2018-03-26T19:38:58.047Z,9.30
2018-03-26T19:41:24.551Z,10.70
2018-03-26T19:43:51.081Z,10.07
2018-03-26T19:46:17.636Z,11.97
2018-03-26T19:48:44.866Z,14.73
2018-03-26T19:51:11.325Z,11.67
2018-03-26T19:53:37.783Z,12.57
2018-03-26T19:56:04.859Z,13.77
2018-03-26T19:58:31.264Z,14.30
2018-03-26T20:00:57.809Z,15.50
2018-03-26T20:03:24.244Z,13.03
2018-03-26T20:05:50.710Z,14.20
2018-03-26T20:08:17.936Z,16.00
2018-03-26T20:10:44.473Z,18.97
2018-03-26T20:13:11.769Z,14.20
2018-03-26T20:15:38.331Z,12.87
2018-03-26T20:18:04.855Z,14.77
2018-03-26T20:20:31.351Z,16.33
2018-03-26T20:22:57.877Z,13.00
2018-03-26T20:25:24.410Z,11.73
2018-03-26T20:27:50.948Z,14.70
2018-03-26T20:30:18.176Z,13.80
2018-03-26T20:32:44.614Z,16.40
2018-03-26T20:35:11.154Z,18.73
2018-03-26T20:37:37.637Z,19.37
2018-03-26T20:40:04.778Z,17.07
2018-03-26T20:42:32.044Z,17.70
2018-03-26T20:44:58.609Z,19.07
2018-03-26T20:47:25.896Z,18.03
2018-03-26T20:49:53.140Z,18.07
2018-03-26T20:52:19.735Z,19.43
2018-03-26T20:54:46.186Z,16.63
2018-03-26T20:57:12.750Z,22.20
2018-03-26T20:59:39.329Z,17.13
2018-03-26T21:02:05.830Z,17.87
2018-03-26T21:04:32.332Z,17.70
2018-03-26T21:06:58.942Z,19.90
2018-03-26T21:09:25.351Z,20.10
2018-03-26T21:11:51.805Z,21.27
2018-03-26T21:14:18.264Z,20.00
2018-03-26T21:16:44.781Z,20.40
2018-03-26T21:19:11.218Z,22.30
2018-03-26T21:21:37.891Z,23.53
2018-03-26T21:24:04.626Z,21.90
2018-03-26T21:26:31.099Z,23.70
2018-03-26T21:28:58.348Z,22.33
2018-03-26T21:31:25.607Z,22.70
2018-03-26T21:33:52.067Z,22.47
2018-03-26T21:36:18.572Z,25.87
2018-03-26T21:38:45.039Z,25.93
2018-03-26T21:41:11.507Z,23.40
2018-03-26T21:43:38.002Z,24.77
2018-03-26T21:46:05.003Z,20.93
2018-03-26T21:48:31.609Z,25.77
2018-03-26T21:50:58.093Z,23.10
2018-03-26T21:53:25.309Z,22.57
2018-03-26T21:55:51.820Z,25.40
2018-03-26T21:58:19.028Z,25.07
2018-03-26T22:00:45.500Z,27.17
2018-03-26T22:03:11.960Z,26.70
2018-03-26T22:05:40.129Z,27.07
2018-03-26T22:08:06.611Z,27.07
2018-03-26T22:10:33.150Z,26.67
2018-03-26T22:12:59.702Z,28.57
2018-03-26T22:15:26.201Z,28.47
2018-03-26T22:17:53.482Z,26.70
2018-03-26T22:20:20.146Z,28.40
2018-03-26T22:22:47.363Z,27.90
2018-03-26T22:25:13.799Z,28.70
2018-03-26T22:27:40.322Z,28.80
2018-03-26T22:30:07.778Z,28.10
2018-03-26T22:32:34.966Z,28.10
2018-03-26T22:35:01.480Z,28.83
2018-03-26T22:37:27.971Z,28.37
2018-03-26T22:39:54.476Z,27.80
2018-03-26T22:42:20.948Z,29.90
2018-03-26T22:44:47.357Z,29.53
2018-03-26T22:47:13.854Z,30.20
2018-03-26T22:49:40.275Z,30.57
2018-03-26T22:52:06.710Z,30.30
2018-03-26T22:54:33.370Z,33.30
2018-03-26T22:56:59.768Z,30.70
2018-03-26T22:59:27.033Z,29.17
2018-03-26T23:01:53.470Z,31.07
2018-03-26T23:04:20.154Z,32.30
2018-03-26T23:06:47.403Z,31.77
2018-03-26T23:09:14.643Z,31.70
2018-03-26T23:11:41.819Z,29.40
2018-03-26T23:14:08.327Z,26.40
2018-03-26T23:16:34.746Z,25.87
2018-03-26T23:19:01.232Z,23.47
2018-03-26T23:21:27.685Z,25.47
2018-03-26T23:23:54.122Z,26.10
2018-03-26T23:26:20.570Z,25.50
2018-03-26T23:28:47.027Z,25.47
2018-03-26T23:31:13.461Z,22.80
2018-03-26T23:33:39.858Z,23.80
2018-03-26T23:36:06.325Z,23.80
2018-03-26T23:38:32.755Z,26.47
2018-03-26T23:40:59.265Z,23.40
2018-03-26T23:43:25.711Z,25.60
2018-03-26T23:45:52.335Z,21.90
2018-03-26T23:48:19.506Z,24.87
2018-03-26T23:50:45.946Z,22.23
2018-03-26T23:53:12.434Z,23.90
2018-03-26T23:55:38.945Z,23.87
2018-03-26T23:58:06.096Z,21.17
